createdAt,value
2023-05-24T00:00:02.092Z,9.9
2023-05-24T00:15:01.706Z,9.73
2023-05-24T00:30:02.411Z,9.53
2023-05-24T00:45:02.008Z,9.44
2023-05-24T01:00:01.598Z,9.36
2023-05-24T01:15:02.185Z,9.15
2023-05-24T01:30:01.816Z,9.07
2023-05-24T01:45:02.461Z,8.95
2023-05-24T02:00:02.096Z,8.8
2023-05-24T02:15:01.716Z,8.73
2023-05-24T02:30:02.384Z,8.65
2023-05-24T02:45:02.006Z,8.64
2023-05-24T03:00:01.627Z,8.65
2023-05-24T03:15:02.329Z,8.81
2023-05-24T03:30:02.022Z,8.84
2023-05-24T03:45:01.630Z,9.01
2023-05-24T04:00:02.285Z,9.06
2023-05-24T04:15:01.866Z,9.2
2023-05-24T04:30:01.986Z,9.15
2023-05-24T04:45:01.620Z,9.4
2023-05-24T05:00:02.232Z,9.56
2023-05-24T05:15:01.907Z,9.66
2023-05-24T05:30:01.565Z,9.77
2023-05-24T05:45:02.211Z,10.06
2023-05-24T06:00:01.923Z,10.53
2023-05-24T06:15:01.543Z,10.48
2023-05-24T06:30:02.197Z,10.96
2023-05-24T06:45:01.846Z,11.29
2023-05-24T07:00:02.485Z,11.72
2023-05-24T07:15:02.106Z,12.04
2023-05-24T07:30:01.804Z,12.71
2023-05-24T07:45:02.461Z,12.79
2023-05-24T08:00:02.112Z,13.42
2023-05-24T08:15:01.789Z,13.52
2023-05-24T08:30:02.429Z,13.98
2023-05-24T08:45:02.087Z,13.94
2023-05-24T09:00:01.762Z,14.15
2023-05-24T09:15:02.447Z,13.95
2023-05-24T09:30:02.085Z,13.85
2023-05-24T09:45:01.879Z,14.03
2023-05-24T10:00:01.642Z,13.89
2023-05-24T10:15:02.367Z,14.19
2023-05-24T10:30:02.176Z,14.14
2023-05-24T10:45:01.865Z,14.54
2023-05-24T11:00:02.495Z,15.11
2023-05-24T11:15:02.153Z,15.61
2023-05-24T11:30:01.811Z,15.55
2023-05-24T11:45:02.508Z,15.69
2023-05-24T12:00:02.150Z,15.89
2023-05-24T12:15:01.834Z,16.51
2023-05-24T12:30:02.463Z,16.11
2023-05-24T12:45:02.049Z,16.38
2023-05-24T13:00:01.637Z,16.37
2023-05-24T13:15:02.305Z,16.14
2023-05-24T13:30:02.155Z,16.87
2023-05-24T13:45:01.841Z,16.9
2023-05-24T14:00:02.486Z,16.95
2023-05-24T14:15:02.123Z,16.88
2023-05-24T14:30:01.834Z,16.93
2023-05-24T14:45:01.549Z,16.92
2023-05-24T15:00:02.205Z,17.28
2023-05-24T15:15:01.848Z,17.84
2023-05-24T15:30:02.501Z,17.89
2023-05-24T15:45:02.093Z,17.35
2023-05-24T16:00:01.716Z,17.41
2023-05-24T16:15:02.305Z,17.36
2023-05-24T16:30:01.920Z,17.4
2023-05-24T16:45:02.507Z,17.34
2023-05-24T17:00:02.107Z,17.49
2023-05-24T17:15:01.770Z,17.45
2023-05-24T17:30:02.421Z,17.57
2023-05-24T17:45:02.061Z,17.42
2023-05-24T18:00:01.673Z,17.44
2023-05-24T18:15:02.296Z,17.28
2023-05-24T18:30:01.956Z,17.22
2023-05-24T18:45:01.576Z,17.39
2023-05-24T19:00:02.259Z,17.09
2023-05-24T19:15:01.896Z,16.97
2023-05-24T19:30:01.546Z,16.82
2023-05-24T19:45:02.139Z,16.77
2023-05-24T20:00:01.770Z,16.64
2023-05-24T20:15:02.448Z,16.42
2023-05-24T20:30:02.144Z,16.19
2023-05-24T20:45:01.730Z,15.98
2023-05-24T21:00:02.313Z,15.63
2023-05-24T21:15:01.903Z,15.2
2023-05-24T21:30:01.579Z,14.88
2023-05-24T21:45:02.185Z,14.62
2023-05-24T22:00:01.831Z,14.22
2023-05-24T22:15:02.465Z,13.91
2023-05-24T22:30:02.120Z,13.57
2023-05-24T22:45:01.758Z,13.31
2023-05-24T23:00:02.428Z,13
2023-05-24T23:15:02.016Z,12.75
2023-05-24T23:30:01.643Z,12.57
2023-05-24T23:45:02.280Z,12.33
